sensor_id;sensor_type;location;lat;lon;timestamp;P1;durP1;ratioP1;P2;durP2;ratioP2
4424;SDS011;2225;53.568;13.266;2022-12-10T00:01:36;11.80;;;8.30;;
4424;SDS011;2225;53.568;13.266;2022-12-10T00:04:04;14.17;;;8.70;;
4424;SDS011;2225;53.568;13.266;2022-12-10T00:06:32;10.90;;;7.80;;
4424;SDS011;2225;53.568;13.266;2022-12-10T00:09:01;12.77;;;7.40;;
4424;SDS011;2225;53.568;13.266;2022-12-10T00:11:31;13.00;;;8.10;;
4424;SDS011;2225;53.568;13.266;2022-12-10T00:13:58;16.20;;;9.17;;
4424;SDS011;2225;53.568;13.266;2022-12-10T00:16:26;15.90;;;9.07;;
4424;SDS011;2225;53.568;13.266;2022-12-10T00:18:54;14.60;;;7.70;;
4424;SDS011;2225;53.568;13.266;2022-12-10T00:21:23;13.20;;;7.83;;
4424;SDS011;2225;53.568;13.266;2022-12-10T00:23:52;15.50;;;8.03;;
4424;SDS011;2225;53.568;13.266;2022-12-10T00:26:21;10.67;;;7.33;;
4424;SDS011;2225;53.568;13.266;2022-12-10T00:28:51;15.57;;;8.30;;
4424;SDS011;2225;53.568;13.266;2022-12-10T00:31:20;10.63;;;6.93;;
4424;SDS011;2225;53.568;13.266;2022-12-10T00:33:54;14.80;;;8.20;;
4424;SDS011;2225;53.568;13.266;2022-12-10T00:36:25;11.00;;;7.80;;
4424;SDS011;2225;53.568;13.266;2022-12-10T00:39:00;12.00;;;7.47;;
4424;SDS011;2225;53.568;13.266;2022-12-10T00:41:28;12.70;;;7.77;;
4424;SDS011;2225;53.568;13.266;2022-12-10T00:43:55;13.50;;;8.50;;
4424;SDS011;2225;53.568;13.266;2022-12-10T00:46:22;13.27;;;7.60;;
4424;SDS011;2225;53.568;13.266;2022-12-10T00:48:50;10.07;;;6.70;;
4424;SDS011;2225;53.568;13.266;2022-12-10T00:51:18;14.87;;;7.67;;
4424;SDS011;2225;53.568;13.266;2022-12-10T00:53:49;10.90;;;7.33;;
4424;SDS011;2225;53.568;13.266;2022-12-10T00:56:19;11.67;;;7.93;;
4424;SDS011;2225;53.568;13.266;2022-12-10T00:58:49;16.20;;;7.90;;
4424;SDS011;2225;53.568;13.266;2022-12-10T01:01:21;12.33;;;8.03;;
4424;SDS011;2225;53.568;13.266;2022-12-10T01:03:55;12.07;;;7.90;;
4424;SDS011;2225;53.568;13.266;2022-12-10T01:06:26;13.23;;;8.43;;
4424;SDS011;2225;53.568;13.266;2022-12-10T01:08:57;12.07;;;7.37;;
4424;SDS011;2225;53.568;13.266;2022-12-10T01:11:31;13.77;;;7.60;;
4424;SDS011;2225;53.568;13.266;2022-12-10T01:14:04;13.10;;;8.10;;
4424;SDS011;2225;53.568;13.266;2022-12-10T01:16:37;15.53;;;8.83;;
4424;SDS011;2225;53.568;13.266;2022-12-10T01:19:05;14.93;;;8.90;;
4424;SDS011;2225;53.568;13.266;2022-12-10T01:21:33;12.70;;;8.47;;
4424;SDS011;2225;53.568;13.266;2022-12-10T01:24:00;14.23;;;8.60;;
4424;SDS011;2225;53.568;13.266;2022-12-10T01:26:29;14.93;;;8.90;;
4424;SDS011;2225;53.568;13.266;2022-12-10T01:29:00;11.40;;;7.47;;
4424;SDS011;2225;53.568;13.266;2022-12-10T01:31:33;11.27;;;7.70;;
4424;SDS011;2225;53.568;13.266;2022-12-10T01:34:05;18.17;;;8.40;;
4424;SDS011;2225;53.568;13.266;2022-12-10T01:36:37;12.10;;;8.40;;
4424;SDS011;2225;53.568;13.266;2022-12-10T01:39:12;11.13;;;7.23;;
4424;SDS011;2225;53.568;13.266;2022-12-10T01:41:48;12.23;;;8.60;;
4424;SDS011;2225;53.568;13.266;2022-12-10T01:46:46;15.00;;;9.17;;
4424;SDS011;2225;53.568;13.266;2022-12-10T01:49:27;12.50;;;8.30;;
4424;SDS011;2225;53.568;13.266;2022-12-10T01:52:04;13.30;;;9.00;;
4424;SDS011;2225;53.568;13.266;2022-12-10T01:54:42;14.70;;;9.20;;
4424;SDS011;2225;53.568;13.266;2022-12-10T01:57:18;12.90;;;8.53;;
4424;SDS011;2225;53.568;13.266;2022-12-10T01:59:57;13.33;;;8.90;;
4424;SDS011;2225;53.568;13.266;2022-12-10T02:02:32;13.63;;;8.70;;
4424;SDS011;2225;53.568;13.266;2022-12-10T02:05:26;15.17;;;9.00;;
4424;SDS011;2225;53.568;13.266;2022-12-10T02:08:18;13.87;;;9.63;;
4424;SDS011;2225;53.568;13.266;2022-12-10T02:13:42;17.20;;;10.33;;
4424;SDS011;2225;53.568;13.266;2022-12-10T02:19:13;17.60;;;10.20;;
4424;SDS011;2225;53.568;13.266;2022-12-10T02:22:15;14.70;;;10.37;;
4424;SDS011;2225;53.568;13.266;2022-12-10T02:24:45;15.17;;;10.00;;
4424;SDS011;2225;53.568;13.266;2022-12-10T02:27:51;13.50;;;9.13;;
4424;SDS011;2225;53.568;13.266;2022-12-10T02:30:33;10.57;;;6.73;;
4424;SDS011;2225;53.568;13.266;2022-12-10T02:33:03;10.07;;;6.57;;
4424;SDS011;2225;53.568;13.266;2022-12-10T02:35:32;13.30;;;7.53;;
4424;SDS011;2225;53.568;13.266;2022-12-10T02:38:05;11.00;;;6.03;;
4424;SDS011;2225;53.568;13.266;2022-12-10T02:40:42;12.50;;;7.63;;
4424;SDS011;2225;53.568;13.266;2022-12-10T02:43:13;14.77;;;7.70;;
4424;SDS011;2225;53.568;13.266;2022-12-10T02:45:43;16.03;;;9.40;;
4424;SDS011;2225;53.568;13.266;2022-12-10T02:48:12;14.80;;;7.60;;
4424;SDS011;2225;53.568;13.266;2022-12-10T02:50:41;9.80;;;6.23;;
4424;SDS011;2225;53.568;13.266;2022-12-10T02:53:09;10.43;;;5.97;;
4424;SDS011;2225;53.568;13.266;2022-12-10T03:07:24;11.63;;;6.60;;
4424;SDS011;2225;53.568;13.266;2022-12-10T03:10:06;9.50;;;6.20;;
4424;SDS011;2225;53.568;13.266;2022-12-10T03:12:47;16.57;;;8.73;;
4424;SDS011;2225;53.568;13.266;2022-12-10T03:15:21;16.93;;;9.20;;
4424;SDS011;2225;53.568;13.266;2022-12-10T03:17:50;14.80;;;9.70;;
4424;SDS011;2225;53.568;13.266;2022-12-10T03:20:19;15.77;;;8.60;;
4424;SDS011;2225;53.568;13.266;2022-12-10T03:22:48;13.37;;;6.67;;
4424;SDS011;2225;53.568;13.266;2022-12-10T03:25:17;15.97;;;9.37;;
4424;SDS011;2225;53.568;13.266;2022-12-10T03:27:49;17.57;;;10.27;;
4424;SDS011;2225;53.568;13.266;2022-12-10T03:30:21;17.50;;;10.23;;
4424;SDS011;2225;53.568;13.266;2022-12-10T03:32:49;17.70;;;9.93;;
4424;SDS011;2225;53.568;13.266;2022-12-10T03:35:17;17.47;;;10.63;;
4424;SDS011;2225;53.568;13.266;2022-12-10T03:37:47;15.80;;;10.07;;
4424;SDS011;2225;53.568;13.266;2022-12-10T03:40:16;19.37;;;11.00;;
4424;SDS011;2225;53.568;13.266;2022-12-10T03:42:47;17.47;;;10.40;;
4424;SDS011;2225;53.568;13.266;2022-12-10T03:45:14;10.50;;;6.97;;
4424;SDS011;2225;53.568;13.266;2022-12-10T03:47:41;9.77;;;5.77;;
4424;SDS011;2225;53.568;13.266;2022-12-10T03:50:09;14.93;;;6.83;;
4424;SDS011;2225;53.568;13.266;2022-12-10T03:52:37;13.23;;;7.40;;
4424;SDS011;2225;53.568;13.266;2022-12-10T03:55:04;11.03;;;6.77;;
4424;SDS011;2225;53.568;13.266;2022-12-10T03:57:33;12.20;;;7.57;;
4424;SDS011;2225;53.568;13.266;2022-12-10T04:00:00;12.70;;;7.80;;
4424;SDS011;2225;53.568;13.266;2022-12-10T04:02:37;14.47;;;9.43;;
4424;SDS011;2225;53.568;13.266;2022-12-10T04:05:04;14.80;;;8.93;;
4424;SDS011;2225;53.568;13.266;2022-12-10T04:07:33;17.77;;;11.10;;
4424;SDS011;2225;53.568;13.266;2022-12-10T04:10:00;17.60;;;11.50;;
4424;SDS011;2225;53.568;13.266;2022-12-10T04:12:28;15.67;;;10.20;;
4424;SDS011;2225;53.568;13.266;2022-12-10T04:14:55;18.63;;;9.87;;
4424;SDS011;2225;53.568;13.266;2022-12-10T04:17:40;12.80;;;8.70;;
4424;SDS011;2225;53.568;13.266;2022-12-10T04:20:07;14.50;;;9.53;;
4424;SDS011;2225;53.568;13.266;2022-12-10T04:22:57;16.20;;;9.00;;
4424;SDS011;2225;53.568;13.266;2022-12-10T04:26:02;15.27;;;9.80;;
4424;SDS011;2225;53.568;13.266;2022-12-10T04:28:47;12.00;;;6.83;;
4424;SDS011;2225;53.568;13.266;2022-12-10T04:31:14;9.37;;;5.67;;
4424;SDS011;2225;53.568;13.266;2022-12-10T04:33:41;10.17;;;6.70;;
4424;SDS011;2225;53.568;13.266;2022-12-10T04:36:08;8.57;;;6.30;;
4424;SDS011;2225;53.568;13.266;2022-12-10T04:38:35;8.47;;;5.13;;
4424;SDS011;2225;53.568;13.266;2022-12-10T04:41:02;9.33;;;6.47;;
4424;SDS011;2225;53.568;13.266;2022-12-10T04:43:41;10.03;;;6.27;;
4424;SDS011;2225;53.568;13.266;2022-12-10T04:46:09;11.47;;;7.30;;
4424;SDS011;2225;53.568;13.266;2022-12-10T04:48:37;10.23;;;6.70;;
4424;SDS011;2225;53.568;13.266;2022-12-10T04:51:04;11.17;;;6.33;;
4424;SDS011;2225;53.568;13.266;2022-12-10T04:53:31;9.00;;;6.20;;
4424;SDS011;2225;53.568;13.266;2022-12-10T04:55:58;13.07;;;7.83;;
4424;SDS011;2225;53.568;13.266;2022-12-10T04:58:27;13.13;;;8.03;;
4424;SDS011;2225;53.568;13.266;2022-12-10T05:01:03;11.80;;;7.67;;
4424;SDS011;2225;53.568;13.266;2022-12-10T05:03:33;11.27;;;6.70;;
4424;SDS011;2225;53.568;13.266;2022-12-10T05:06:05;10.90;;;6.50;;
4424;SDS011;2225;53.568;13.266;2022-12-10T05:08:39;8.40;;;6.00;;
4424;SDS011;2225;53.568;13.266;2022-12-10T05:11:08;9.33;;;6.93;;
4424;SDS011;2225;53.568;13.266;2022-12-10T05:13:38;9.60;;;5.80;;
4424;SDS011;2225;53.568;13.266;2022-12-10T05:16:06;11.17;;;7.20;;
4424;SDS011;2225;53.568;13.266;2022-12-10T05:18:36;10.83;;;6.60;;
4424;SDS011;2225;53.568;13.266;2022-12-10T05:21:05;10.33;;;6.50;;
4424;SDS011;2225;53.568;13.266;2022-12-10T05:23:37;9.40;;;7.17;;
4424;SDS011;2225;53.568;13.266;2022-12-10T05:26:08;11.93;;;6.70;;
4424;SDS011;2225;53.568;13.266;2022-12-10T05:28:54;12.90;;;7.87;;
4424;SDS011;2225;53.568;13.266;2022-12-10T05:31:23;11.73;;;7.03;;
4424;SDS011;2225;53.568;13.266;2022-12-10T05:33:55;9.23;;;5.47;;
4424;SDS011;2225;53.568;13.266;2022-12-10T05:36:24;9.63;;;5.63;;
4424;SDS011;2225;53.568;13.266;2022-12-10T05:38:55;10.40;;;6.10;;
4424;SDS011;2225;53.568;13.266;2022-12-10T05:41:25;8.60;;;5.93;;
4424;SDS011;2225;53.568;13.266;2022-12-10T05:43:55;11.63;;;6.30;;
4424;SDS011;2225;53.568;13.266;2022-12-10T05:46:24;12.70;;;5.87;;
4424;SDS011;2225;53.568;13.266;2022-12-10T05:48:55;10.50;;;5.70;;
4424;SDS011;2225;53.568;13.266;2022-12-10T05:51:24;9.90;;;5.90;;
4424;SDS011;2225;53.568;13.266;2022-12-10T05:53:54;8.20;;;5.40;;
4424;SDS011;2225;53.568;13.266;2022-12-10T05:56:23;7.50;;;6.00;;
4424;SDS011;2225;53.568;13.266;2022-12-10T05:58:52;8.10;;;6.00;;
4424;SDS011;2225;53.568;13.266;2022-12-10T06:01:23;17.57;;;6.80;;
4424;SDS011;2225;53.568;13.266;2022-12-10T06:03:53;15.70;;;6.60;;
4424;SDS011;2225;53.568;13.266;2022-12-10T06:06:44;8.43;;;6.03;;
4424;SDS011;2225;53.568;13.266;2022-12-10T06:09:10;10.77;;;6.90;;
4424;SDS011;2225;53.568;13.266;2022-12-10T06:11:39;9.53;;;5.47;;
4424;SDS011;2225;53.568;13.266;2022-12-10T06:14:06;11.77;;;6.80;;
4424;SDS011;2225;53.568;13.266;2022-12-10T06:16:32;13.87;;;7.53;;
4424;SDS011;2225;53.568;13.266;2022-12-10T06:19:00;15.30;;;7.13;;
4424;SDS011;2225;53.568;13.266;2022-12-10T06:21:27;10.47;;;6.67;;
4424;SDS011;2225;53.568;13.266;2022-12-10T06:23:54;12.67;;;7.70;;
4424;SDS011;2225;53.568;13.266;2022-12-10T06:26:24;12.07;;;7.60;;
4424;SDS011;2225;53.568;13.266;2022-12-10T06:28:52;11.43;;;7.07;;
4424;SDS011;2225;53.568;13.266;2022-12-10T06:31:19;14.70;;;6.67;;
4424;SDS011;2225;53.568;13.266;2022-12-10T06:33:47;13.77;;;7.00;;
4424;SDS011;2225;53.568;13.266;2022-12-10T06:36:15;12.83;;;8.70;;
4424;SDS011;2225;53.568;13.266;2022-12-10T06:38:43;12.37;;;6.50;;
4424;SDS011;2225;53.568;13.266;2022-12-10T06:41:12;14.43;;;8.83;;
4424;SDS011;2225;53.568;13.266;2022-12-10T06:43:40;15.47;;;8.10;;
4424;SDS011;2225;53.568;13.266;2022-12-10T06:46:09;10.10;;;6.53;;
4424;SDS011;2225;53.568;13.266;2022-12-10T06:48:39;12.67;;;7.40;;
4424;SDS011;2225;53.568;13.266;2022-12-10T06:51:07;12.93;;;8.20;;
4424;SDS011;2225;53.568;13.266;2022-12-10T06:53:36;13.40;;;8.87;;
4424;SDS011;2225;53.568;13.266;2022-12-10T06:56:05;14.37;;;8.00;;
4424;SDS011;2225;53.568;13.266;2022-12-10T06:58:34;12.87;;;8.00;;
4424;SDS011;2225;53.568;13.266;2022-12-10T07:01:11;16.10;;;7.80;;
4424;SDS011;2225;53.568;13.266;2022-12-10T07:03:52;13.33;;;7.87;;
4424;SDS011;2225;53.568;13.266;2022-12-10T07:06:21;14.03;;;8.67;;
4424;SDS011;2225;53.568;13.266;2022-12-10T07:08:50;14.37;;;8.87;;
4424;SDS011;2225;53.568;13.266;2022-12-10T07:11:18;15.20;;;8.57;;
4424;SDS011;2225;53.568;13.266;2022-12-10T07:13:48;15.30;;;9.10;;
4424;SDS011;2225;53.568;13.266;2022-12-10T07:16:27;18.73;;;9.07;;
4424;SDS011;2225;53.568;13.266;2022-12-10T07:18:56;14.13;;;8.30;;
4424;SDS011;2225;53.568;13.266;2022-12-10T07:21:28;11.40;;;8.03;;
4424;SDS011;2225;53.568;13.266;2022-12-10T07:23:59;12.03;;;8.10;;
4424;SDS011;2225;53.568;13.266;2022-12-10T07:26:31;12.40;;;8.30;;
4424;SDS011;2225;53.568;13.266;2022-12-10T07:29:02;13.83;;;8.60;;
4424;SDS011;2225;53.568;13.266;2022-12-10T07:31:30;16.40;;;8.20;;
4424;SDS011;2225;53.568;13.266;2022-12-10T07:33:58;14.77;;;9.40;;
4424;SDS011;2225;53.568;13.266;2022-12-10T07:36:25;12.40;;;7.47;;
4424;SDS011;2225;53.568;13.266;2022-12-10T07:38:53;14.50;;;8.47;;
4424;SDS011;2225;53.568;13.266;2022-12-10T07:41:21;18.43;;;8.97;;
4424;SDS011;2225;53.568;13.266;2022-12-10T07:43:49;17.13;;;9.83;;
4424;SDS011;2225;53.568;13.266;2022-12-10T07:46:18;19.50;;;9.70;;
4424;SDS011;2225;53.568;13.266;2022-12-10T07:48:48;19.67;;;9.63;;
4424;SDS011;2225;53.568;13.266;2022-12-10T07:51:16;22.63;;;10.33;;
4424;SDS011;2225;53.568;13.266;2022-12-10T07:53:45;18.67;;;11.50;;
4424;SDS011;2225;53.568;13.266;2022-12-10T07:56:12;18.90;;;10.83;;
4424;SDS011;2225;53.568;13.266;2022-12-10T07:58:43;17.53;;;9.37;;
4424;SDS011;2225;53.568;13.266;2022-12-10T08:01:12;15.93;;;9.30;;
4424;SDS011;2225;53.568;13.266;2022-12-10T08:03:49;21.77;;;10.90;;
4424;SDS011;2225;53.568;13.266;2022-12-10T08:06:20;19.00;;;11.00;;
4424;SDS011;2225;53.568;13.266;2022-12-10T08:08:47;21.80;;;10.93;;
4424;SDS011;2225;53.568;13.266;2022-12-10T08:11:16;23.53;;;11.80;;
4424;SDS011;2225;53.568;13.266;2022-12-10T08:13:45;14.63;;;10.20;;
4424;SDS011;2225;53.568;13.266;2022-12-10T08:16:20;21.83;;;11.00;;
4424;SDS011;2225;53.568;13.266;2022-12-10T08:18:54;20.23;;;9.80;;
4424;SDS011;2225;53.568;13.266;2022-12-10T08:21:24;24.60;;;11.47;;
4424;SDS011;2225;53.568;13.266;2022-12-10T08:23:54;15.13;;;10.50;;
4424;SDS011;2225;53.568;13.266;2022-12-10T08:26:22;19.83;;;10.47;;
4424;SDS011;2225;53.568;13.266;2022-12-10T08:28:52;28.73;;;13.37;;
4424;SDS011;2225;53.568;13.266;2022-12-10T08:31:21;30.70;;;14.93;;
4424;SDS011;2225;53.568;13.266;2022-12-10T08:33:50;33.63;;;14.43;;
4424;SDS011;2225;53.568;13.266;2022-12-10T08:36:17;33.20;;;14.07;;
4424;SDS011;2225;53.568;13.266;2022-12-10T08:38:46;37.93;;;13.90;;
4424;SDS011;2225;53.568;13.266;2022-12-10T08:41:17;39.17;;;14.70;;
4424;SDS011;2225;53.568;13.266;2022-12-10T08:43:47;43.50;;;16.70;;
4424;SDS011;2225;53.568;13.266;2022-12-10T08:46:14;43.37;;;17.10;;
4424;SDS011;2225;53.568;13.266;2022-12-10T08:48:42;43.80;;;18.20;;
4424;SDS011;2225;53.568;13.266;2022-12-10T08:51:10;53.27;;;19.63;;
4424;SDS011;2225;53.568;13.266;2022-12-10T08:53:41;54.50;;;19.50;;
4424;SDS011;2225;53.568;13.266;2022-12-10T08:56:08;45.30;;;16.60;;
4424;SDS011;2225;53.568;13.266;2022-12-10T08:58:38;38.00;;;14.20;;
4424;SDS011;2225;53.568;13.266;2022-12-10T09:01:12;52.23;;;17.70;;
4424;SDS011;2225;53.568;13.266;2022-12-10T09:03:43;46.47;;;17.03;;
4424;SDS011;2225;53.568;13.266;2022-12-10T09:06:12;52.20;;;17.27;;
4424;SDS011;2225;53.568;13.266;2022-12-10T09:08:42;24.50;;;11.40;;
4424;SDS011;2225;53.568;13.266;2022-12-10T09:11:31;39.33;;;12.73;;
4424;SDS011;2225;53.568;13.266;2022-12-10T09:13:58;26.13;;;10.70;;
4424;SDS011;2225;53.568;13.266;2022-12-10T09:16:30;28.80;;;10.67;;
4424;SDS011;2225;53.568;13.266;2022-12-10T09:19:00;26.40;;;12.03;;
4424;SDS011;2225;53.568;13.266;2022-12-10T09:21:28;34.73;;;10.83;;
4424;SDS011;2225;53.568;13.266;2022-12-10T09:23:56;35.43;;;12.33;;
4424;SDS011;2225;53.568;13.266;2022-12-10T09:26:24;24.23;;;10.30;;
4424;SDS011;2225;53.568;13.266;2022-12-10T09:28:51;29.63;;;12.53;;
4424;SDS011;2225;53.568;13.266;2022-12-10T09:31:19;39.43;;;13.63;;
4424;SDS011;2225;53.568;13.266;2022-12-10T09:33:47;36.80;;;14.20;;
4424;SDS011;2225;53.568;13.266;2022-12-10T09:36:16;32.77;;;13.20;;
4424;SDS011;2225;53.568;13.266;2022-12-10T09:38:44;33.80;;;14.90;;
4424;SDS011;2225;53.568;13.266;2022-12-10T09:41:25;40.00;;;15.37;;
4424;SDS011;2225;53.568;13.266;2022-12-10T09:44:12;41.53;;;15.27;;
4424;SDS011;2225;53.568;13.266;2022-12-10T09:47:00;32.80;;;15.07;;
4424;SDS011;2225;53.568;13.266;2022-12-10T09:52:36;47.67;;;16.67;;
4424;SDS011;2225;53.568;13.266;2022-12-10T09:55:12;42.27;;;16.40;;
4424;SDS011;2225;53.568;13.266;2022-12-10T09:57:48;39.43;;;16.27;;
4424;SDS011;2225;53.568;13.266;2022-12-10T10:02:52;47.10;;;16.23;;
4424;SDS011;2225;53.568;13.266;2022-12-10T10:05:29;47.83;;;15.10;;
4424;SDS011;2225;53.568;13.266;2022-12-10T10:10:58;35.57;;;13.47;;
4424;SDS011;2225;53.568;13.266;2022-12-10T10:13:36;32.90;;;13.87;;
4424;SDS011;2225;53.568;13.266;2022-12-10T10:19:04;31.33;;;13.83;;
4424;SDS011;2225;53.568;13.266;2022-12-10T10:21:41;34.13;;;14.30;;
4424;SDS011;2225;53.568;13.266;2022-12-10T10:24:22;47.67;;;15.13;;
4424;SDS011;2225;53.568;13.266;2022-12-10T10:26:57;32.43;;;14.40;;
4424;SDS011;2225;53.568;13.266;2022-12-10T10:29:50;35.60;;;13.57;;
4424;SDS011;2225;53.568;13.266;2022-12-10T10:35:26;49.10;;;14.97;;
4424;SDS011;2225;53.568;13.266;2022-12-10T10:38:00;38.17;;;14.00;;
4424;SDS011;2225;53.568;13.266;2022-12-10T10:40:44;26.00;;;10.70;;
4424;SDS011;2225;53.568;13.266;2022-12-10T10:43:18;29.13;;;12.00;;
4424;SDS011;2225;53.568;13.266;2022-12-10T10:46:00;35.77;;;12.43;;
4424;SDS011;2225;53.568;13.266;2022-12-10T10:48:33;31.33;;;11.57;;
4424;SDS011;2225;53.568;13.266;2022-12-10T10:53:43;26.50;;;10.00;;
4424;SDS011;2225;53.568;13.266;2022-12-10T10:56:16;34.10;;;12.33;;
4424;SDS011;2225;53.568;13.266;2022-12-10T10:58:50;38.43;;;13.00;;
4424;SDS011;2225;53.568;13.266;2022-12-10T11:01:25;23.23;;;10.33;;
4424;SDS011;2225;53.568;13.266;2022-12-10T11:04:13;31.93;;;10.23;;
4424;SDS011;2225;53.568;13.266;2022-12-10T11:06:42;33.50;;;11.70;;
4424;SDS011;2225;53.568;13.266;2022-12-10T11:09:16;41.70;;;12.03;;
4424;SDS011;2225;53.568;13.266;2022-12-10T11:12:06;30.10;;;11.37;;
4424;SDS011;2225;53.568;13.266;2022-12-10T11:14:49;25.23;;;10.50;;
4424;SDS011;2225;53.568;13.266;2022-12-10T11:17:18;23.33;;;8.50;;
4424;SDS011;2225;53.568;13.266;2022-12-10T11:19:58;21.93;;;8.43;;
4424;SDS011;2225;53.568;13.266;2022-12-10T11:22:51;21.17;;;8.20;;
4424;SDS011;2225;53.568;13.266;2022-12-10T11:28:57;23.70;;;7.87;;
4424;SDS011;2225;53.568;13.266;2022-12-10T11:32:15;24.27;;;7.37;;
4424;SDS011;2225;53.568;13.266;2022-12-10T11:35:11;17.63;;;7.00;;
4424;SDS011;2225;53.568;13.266;2022-12-10T11:40:58;17.53;;;8.20;;
4424;SDS011;2225;53.568;13.266;2022-12-10T11:43:44;16.20;;;7.93;;
4424;SDS011;2225;53.568;13.266;2022-12-10T11:52:16;21.07;;;8.07;;
4424;SDS011;2225;53.568;13.266;2022-12-10T11:55:15;14.70;;;7.73;;
4424;SDS011;2225;53.568;13.266;2022-12-10T11:58:21;17.20;;;6.97;;
4424;SDS011;2225;53.568;13.266;2022-12-10T12:01:26;15.00;;;6.57;;
4424;SDS011;2225;53.568;13.266;2022-12-10T12:04:25;20.57;;;7.83;;
4424;SDS011;2225;53.568;13.266;2022-12-10T12:13:19;17.70;;;7.67;;
4424;SDS011;2225;53.568;13.266;2022-12-10T12:15:59;18.20;;;7.27;;
4424;SDS011;2225;53.568;13.266;2022-12-10T12:18:51;16.00;;;7.13;;
4424;SDS011;2225;53.568;13.266;2022-12-10T12:21:25;17.23;;;8.10;;
4424;SDS011;2225;53.568;13.266;2022-12-10T12:23:53;10.17;;;5.87;;
4424;SDS011;2225;53.568;13.266;2022-12-10T12:30:03;14.70;;;5.90;;
4424;SDS011;2225;53.568;13.266;2022-12-10T12:32:40;14.90;;;6.67;;
4424;SDS011;2225;53.568;13.266;2022-12-10T12:38:28;10.20;;;6.07;;
4424;SDS011;2225;53.568;13.266;2022-12-10T12:41:13;13.97;;;6.60;;
4424;SDS011;2225;53.568;13.266;2022-12-10T12:43:58;11.37;;;5.40;;
4424;SDS011;2225;53.568;13.266;2022-12-10T12:46:57;12.83;;;5.17;;
4424;SDS011;2225;53.568;13.266;2022-12-10T12:49:36;10.30;;;5.27;;
4424;SDS011;2225;53.568;13.266;2022-12-10T12:55:15;15.60;;;5.57;;
4424;SDS011;2225;53.568;13.266;2022-12-10T12:58:11;10.20;;;5.60;;
4424;SDS011;2225;53.568;13.266;2022-12-10T13:01:19;11.33;;;5.70;;
4424;SDS011;2225;53.568;13.266;2022-12-10T13:03:54;21.33;;;6.23;;
4424;SDS011;2225;53.568;13.266;2022-12-10T13:06:24;11.60;;;6.03;;
4424;SDS011;2225;53.568;13.266;2022-12-10T13:11:40;10.27;;;6.20;;
4424;SDS011;2225;53.568;13.266;2022-12-10T13:14:33;24.83;;;6.80;;
4424;SDS011;2225;53.568;13.266;2022-12-10T13:23:05;11.23;;;6.70;;
4424;SDS011;2225;53.568;13.266;2022-12-10T13:33:52;12.70;;;6.10;;
4424;SDS011;2225;53.568;13.266;2022-12-10T13:41:34;10.07;;;6.10;;
4424;SDS011;2225;53.568;13.266;2022-12-10T13:49:54;19.50;;;6.50;;
4424;SDS011;2225;53.568;13.266;2022-12-10T13:52:37;10.50;;;5.60;;
4424;SDS011;2225;53.568;13.266;2022-12-10T13:59:06;11.73;;;6.17;;
4424;SDS011;2225;53.568;13.266;2022-12-10T14:02:27;8.63;;;5.07;;
4424;SDS011;2225;53.568;13.266;2022-12-10T14:05:44;16.83;;;7.97;;
4424;SDS011;2225;53.568;13.266;2022-12-10T14:08:29;12.57;;;7.63;;
4424;SDS011;2225;53.568;13.266;2022-12-10T14:10:59;21.10;;;9.50;;
4424;SDS011;2225;53.568;13.266;2022-12-10T14:13:34;19.20;;;9.30;;
4424;SDS011;2225;53.568;13.266;2022-12-10T14:16:10;14.93;;;8.00;;
4424;SDS011;2225;53.568;13.266;2022-12-10T14:18:38;18.70;;;8.03;;
4424;SDS011;2225;53.568;13.266;2022-12-10T14:21:10;13.47;;;7.50;;
4424;SDS011;2225;53.568;13.266;2022-12-10T14:23:44;16.30;;;9.73;;
4424;SDS011;2225;53.568;13.266;2022-12-10T14:26:25;16.03;;;9.40;;
4424;SDS011;2225;53.568;13.266;2022-12-10T14:28:56;14.40;;;8.97;;
4424;SDS011;2225;53.568;13.266;2022-12-10T14:31:30;13.93;;;7.43;;
4424;SDS011;2225;53.568;13.266;2022-12-10T14:34:01;13.40;;;7.00;;
4424;SDS011;2225;53.568;13.266;2022-12-10T14:36:35;10.03;;;6.00;;
4424;SDS011;2225;53.568;13.266;2022-12-10T14:39:31;13.93;;;6.27;;
4424;SDS011;2225;53.568;13.266;2022-12-10T14:42:03;10.70;;;6.10;;
4424;SDS011;2225;53.568;13.266;2022-12-10T14:44:33;13.07;;;6.30;;
4424;SDS011;2225;53.568;13.266;2022-12-10T14:47:12;14.00;;;8.17;;
4424;SDS011;2225;53.568;13.266;2022-12-10T14:49:48;16.40;;;7.03;;
4424;SDS011;2225;53.568;13.266;2022-12-10T14:52:19;12.03;;;6.90;;
4424;SDS011;2225;53.568;13.266;2022-12-10T14:54:50;10.33;;;6.73;;
4424;SDS011;2225;53.568;13.266;2022-12-10T14:57:27;15.67;;;8.00;;
4424;SDS011;2225;53.568;13.266;2022-12-10T15:00:15;14.60;;;8.23;;
4424;SDS011;2225;53.568;13.266;2022-12-10T15:02:47;15.67;;;7.60;;
4424;SDS011;2225;53.568;13.266;2022-12-10T15:05:24;13.53;;;7.20;;
4424;SDS011;2225;53.568;13.266;2022-12-10T15:07:57;21.77;;;8.53;;
4424;SDS011;2225;53.568;13.266;2022-12-10T15:10:38;14.30;;;7.80;;
4424;SDS011;2225;53.568;13.266;2022-12-10T15:16:18;15.87;;;8.40;;
4424;SDS011;2225;53.568;13.266;2022-12-10T15:19:20;18.80;;;9.40;;
4424;SDS011;2225;53.568;13.266;2022-12-10T15:22:00;19.23;;;10.17;;
4424;SDS011;2225;53.568;13.266;2022-12-10T15:24:47;17.90;;;9.70;;
4424;SDS011;2225;53.568;13.266;2022-12-10T15:27:15;21.77;;;10.53;;
4424;SDS011;2225;53.568;13.266;2022-12-10T15:29:45;17.73;;;9.57;;
4424;SDS011;2225;53.568;13.266;2022-12-10T15:32:13;16.17;;;9.10;;
4424;SDS011;2225;53.568;13.266;2022-12-10T15:34:58;19.40;;;9.17;;
4424;SDS011;2225;53.568;13.266;2022-12-10T15:37:32;18.00;;;11.33;;
4424;SDS011;2225;53.568;13.266;2022-12-10T15:40:03;18.57;;;10.10;;
4424;SDS011;2225;53.568;13.266;2022-12-10T15:45:12;17.60;;;10.00;;
4424;SDS011;2225;53.568;13.266;2022-12-10T15:47:46;16.27;;;10.07;;
4424;SDS011;2225;53.568;13.266;2022-12-10T15:50:13;21.20;;;10.77;;
4424;SDS011;2225;53.568;13.266;2022-12-10T15:52:41;23.27;;;11.80;;
4424;SDS011;2225;53.568;13.266;2022-12-10T15:55:10;18.40;;;10.10;;
4424;SDS011;2225;53.568;13.266;2022-12-10T15:57:39;18.00;;;10.83;;
4424;SDS011;2225;53.568;13.266;2022-12-10T16:00:15;19.40;;;11.10;;
4424;SDS011;2225;53.568;13.266;2022-12-10T16:02:49;24.00;;;11.33;;
4424;SDS011;2225;53.568;13.266;2022-12-10T16:05:28;23.00;;;11.33;;
4424;SDS011;2225;53.568;13.266;2022-12-10T16:08:19;21.50;;;12.03;;
4424;SDS011;2225;53.568;13.266;2022-12-10T16:10:56;31.03;;;15.20;;
4424;SDS011;2225;53.568;13.266;2022-12-10T16:13:30;22.43;;;12.20;;
4424;SDS011;2225;53.568;13.266;2022-12-10T16:16:03;25.13;;;13.73;;
4424;SDS011;2225;53.568;13.266;2022-12-10T16:18:33;27.50;;;12.80;;
4424;SDS011;2225;53.568;13.266;2022-12-10T16:21:04;22.03;;;12.50;;
4424;SDS011;2225;53.568;13.266;2022-12-10T16:23:34;24.60;;;12.70;;
4424;SDS011;2225;53.568;13.266;2022-12-10T16:26:02;25.93;;;12.70;;
4424;SDS011;2225;53.568;13.266;2022-12-10T16:28:38;25.47;;;13.20;;
4424;SDS011;2225;53.568;13.266;2022-12-10T16:31:07;31.03;;;12.90;;
4424;SDS011;2225;53.568;13.266;2022-12-10T16:33:38;22.20;;;13.30;;
4424;SDS011;2225;53.568;13.266;2022-12-10T16:36:05;24.60;;;13.93;;
4424;SDS011;2225;53.568;13.266;2022-12-10T16:38:32;24.10;;;13.03;;
4424;SDS011;2225;53.568;13.266;2022-12-10T16:40:59;19.50;;;12.10;;
4424;SDS011;2225;53.568;13.266;2022-12-10T16:43:27;20.70;;;11.57;;
4424;SDS011;2225;53.568;13.266;2022-12-10T16:45:55;17.07;;;10.10;;
4424;SDS011;2225;53.568;13.266;2022-12-10T16:48:22;20.23;;;11.53;;
4424;SDS011;2225;53.568;13.266;2022-12-10T16:50:50;28.30;;;12.17;;
4424;SDS011;2225;53.568;13.266;2022-12-10T16:53:21;22.67;;;12.07;;
4424;SDS011;2225;53.568;13.266;2022-12-10T16:55:52;37.13;;;14.80;;
4424;SDS011;2225;53.568;13.266;2022-12-10T16:58:20;21.07;;;12.30;;
4424;SDS011;2225;53.568;13.266;2022-12-10T17:00:49;20.20;;;11.63;;
4424;SDS011;2225;53.568;13.266;2022-12-10T17:03:23;22.27;;;10.57;;
4424;SDS011;2225;53.568;13.266;2022-12-10T17:05:55;21.60;;;11.80;;